sensor_id;sensor_type;location;lat;lon;timestamp;temperature;humidity
44894;DHT22;30625;52.206;21.030;2024-02-04T00:00:43;7.40;99.90
44894;DHT22;30625;52.206;21.030;2024-02-04T00:03:08;7.50;99.90
44894;DHT22;30625;52.206;21.030;2024-02-04T00:05:34;7.50;99.90
44894;DHT22;30625;52.206;21.030;2024-02-04T00:07:59;7.50;99.90
44894;DHT22;30625;52.206;21.030;2024-02-04T00:10:25;7.50;99.90
44894;DHT22;30625;52.206;21.030;2024-02-04T00:12:52;7.50;99.90
44894;DHT22;30625;52.206;21.030;2024-02-04T00:15:17;7.50;99.90
44894;DHT22;30625;52.206;21.030;2024-02-04T00:17:43;7.50;99.90
44894;DHT22;30625;52.206;21.030;2024-02-04T00:20:08;7.50;99.90
44894;DHT22;30625;52.206;21.030;2024-02-04T00:22:34;7.50;99.90
44894;DHT22;30625;52.206;21.030;2024-02-04T00:25:00;7.40;99.90
44894;DHT22;30625;52.206;21.030;2024-02-04T00:27:33;7.50;99.90
44894;DHT22;30625;52.206;21.030;2024-02-04T00:29:59;7.40;99.90
44894;DHT22;30625;52.206;21.030;2024-02-04T00:32:25;7.40;99.90
44894;DHT22;30625;52.206;21.030;2024-02-04T00:34:51;7.40;99.90
44894;DHT22;30625;52.206;21.030;2024-02-04T00:37:17;7.40;99.90
44894;DHT22;30625;52.206;21.030;2024-02-04T00:39:43;7.80;99.90
44894;DHT22;30625;52.206;21.030;2024-02-04T00:42:08;7.30;99.90
44894;DHT22;30625;52.206;21.030;2024-02-04T00:44:34;7.30;99.90
44894;DHT22;30625;52.206;21.030;2024-02-04T00:47:00;7.30;99.90
44894;DHT22;30625;52.206;21.030;2024-02-04T00:49:26;7.30;99.90
44894;DHT22;30625;52.206;21.030;2024-02-04T00:51:53;7.30;99.90
44894;DHT22;30625;52.206;21.030;2024-02-04T00:54:18;7.20;99.90
44894;DHT22;30625;52.206;21.030;2024-02-04T00:56:44;7.20;99.90
44894;DHT22;30625;52.206;21.030;2024-02-04T00:59:10;7.20;99.90
44894;DHT22;30625;52.206;21.030;2024-02-04T01:01:35;7.10;99.90
44894;DHT22;30625;52.206;21.030;2024-02-04T01:04:01;7.10;99.90
44894;DHT22;30625;52.206;21.030;2024-02-04T01:06:28;7.10;99.90
44894;DHT22;30625;52.206;21.030;2024-02-04T01:08:55;7.10;99.90
44894;DHT22;30625;52.206;21.030;2024-02-04T01:11:22;7.00;99.90
44894;DHT22;30625;52.206;21.030;2024-02-04T01:13:47;7.00;99.90
44894;DHT22;30625;52.206;21.030;2024-02-04T01:16:13;7.00;99.90
44894;DHT22;30625;52.206;21.030;2024-02-04T01:18:39;6.90;99.90
44894;DHT22;30625;52.206;21.030;2024-02-04T01:21:04;6.90;99.90
44894;DHT22;30625;52.206;21.030;2024-02-04T01:23:30;7.00;99.90
44894;DHT22;30625;52.206;21.030;2024-02-04T01:25:55;6.90;99.90
44894;DHT22;30625;52.206;21.030;2024-02-04T01:28:21;6.90;99.90
44894;DHT22;30625;52.206;21.030;2024-02-04T01:30:46;6.90;99.90
44894;DHT22;30625;52.206;21.030;2024-02-04T01:33:12;6.90;99.90
44894;DHT22;30625;52.206;21.030;2024-02-04T01:35:37;6.90;99.90
44894;DHT22;30625;52.206;21.030;2024-02-04T01:38:03;6.90;99.90
44894;DHT22;30625;52.206;21.030;2024-02-04T01:40:29;7.00;99.90
44894;DHT22;30625;52.206;21.030;2024-02-04T01:42:54;6.90;99.90
44894;DHT22;30625;52.206;21.030;2024-02-04T01:45:21;7.00;99.90
44894;DHT22;30625;52.206;21.030;2024-02-04T01:47:47;7.20;99.90
44894;DHT22;30625;52.206;21.030;2024-02-04T01:50:14;6.90;99.90
44894;DHT22;30625;52.206;21.030;2024-02-04T01:52:39;7.00;99.90
44894;DHT22;30625;52.206;21.030;2024-02-04T01:55:06;7.00;99.90
44894;DHT22;30625;52.206;21.030;2024-02-04T01:57:32;7.00;99.90
44894;DHT22;30625;52.206;21.030;2024-02-04T02:00:00;7.00;99.90
44894;DHT22;30625;52.206;21.030;2024-02-04T02:02:25;6.90;99.90
44894;DHT22;30625;52.206;21.030;2024-02-04T02:04:51;7.30;99.90
44894;DHT22;30625;52.206;21.030;2024-02-04T02:07:17;6.90;99.90
44894;DHT22;30625;52.206;21.030;2024-02-04T02:09:47;6.90;99.90
44894;DHT22;30625;52.206;21.030;2024-02-04T02:12:13;6.90;99.90
44894;DHT22;30625;52.206;21.030;2024-02-04T02:14:44;6.90;99.90
44894;DHT22;30625;52.206;21.030;2024-02-04T02:17:16;6.90;99.90
44894;DHT22;30625;52.206;21.030;2024-02-04T02:22:37;6.80;99.90
44894;DHT22;30625;52.206;21.030;2024-02-04T02:25:04;6.80;99.90
44894;DHT22;30625;52.206;21.030;2024-02-04T02:27:32;6.80;99.90
44894;DHT22;30625;52.206;21.030;2024-02-04T02:29:57;6.80;99.90
44894;DHT22;30625;52.206;21.030;2024-02-04T02:32:23;6.80;99.90
44894;DHT22;30625;52.206;21.030;2024-02-04T02:34:48;6.80;99.90
44894;DHT22;30625;52.206;21.030;2024-02-04T02:37:27;6.80;99.90
44894;DHT22;30625;52.206;21.030;2024-02-04T02:42:23;6.80;99.90
44894;DHT22;30625;52.206;21.030;2024-02-04T02:44:49;6.80;99.90
44894;DHT22;30625;52.206;21.030;2024-02-04T02:47:15;6.80;99.90
44894;DHT22;30625;52.206;21.030;2024-02-04T02:49:40;6.90;99.90
44894;DHT22;30625;52.206;21.030;2024-02-04T02:52:06;6.80;99.90
44894;DHT22;30625;52.206;21.030;2024-02-04T02:54:32;6.90;99.90
44894;DHT22;30625;52.206;21.030;2024-02-04T02:56:57;6.90;99.90
44894;DHT22;30625;52.206;21.030;2024-02-04T02:59:23;6.90;99.90
44894;DHT22;30625;52.206;21.030;2024-02-04T03:01:49;6.90;99.90
44894;DHT22;30625;52.206;21.030;2024-02-04T03:04:14;7.00;99.90
44894;DHT22;30625;52.206;21.030;2024-02-04T03:06:40;7.00;99.90
44894;DHT22;30625;52.206;21.030;2024-02-04T03:09:05;7.00;99.90
44894;DHT22;30625;52.206;21.030;2024-02-04T03:11:31;7.00;99.90
44894;DHT22;30625;52.206;21.030;2024-02-04T03:13:57;7.10;99.90
44894;DHT22;30625;52.206;21.030;2024-02-04T03:16:22;7.10;99.90
44894;DHT22;30625;52.206;21.030;2024-02-04T03:18:48;7.10;99.90
44894;DHT22;30625;52.206;21.030;2024-02-04T03:21:13;7.10;99.90
44894;DHT22;30625;52.206;21.030;2024-02-04T03:23:40;7.10;99.90
44894;DHT22;30625;52.206;21.030;2024-02-04T03:26:07;7.20;99.90
44894;DHT22;30625;52.206;21.030;2024-02-04T03:28:33;7.20;99.90
44894;DHT22;30625;52.206;21.030;2024-02-04T03:30:58;7.60;99.90
44894;DHT22;30625;52.206;21.030;2024-02-04T03:33:23;7.20;99.90
44894;DHT22;30625;52.206;21.030;2024-02-04T03:35:49;7.10;99.90
44894;DHT22;30625;52.206;21.030;2024-02-04T03:38:15;7.20;99.90
44894;DHT22;30625;52.206;21.030;2024-02-04T03:40:41;7.20;99.90
44894;DHT22;30625;52.206;21.030;2024-02-04T03:43:08;7.20;99.90
44894;DHT22;30625;52.206;21.030;2024-02-04T03:45:35;7.20;99.90
44894;DHT22;30625;52.206;21.030;2024-02-04T03:48:00;7.20;99.90
44894;DHT22;30625;52.206;21.030;2024-02-04T03:50:26;7.20;99.90
44894;DHT22;30625;52.206;21.030;2024-02-04T03:52:51;7.10;99.90
44894;DHT22;30625;52.206;21.030;2024-02-04T03:55:18;7.10;99.90
44894;DHT22;30625;52.206;21.030;2024-02-04T03:57:45;7.10;99.90
44894;DHT22;30625;52.206;21.030;2024-02-04T04:00:11;7.20;99.90
44894;DHT22;30625;52.206;21.030;2024-02-04T04:02:37;7.20;99.90
44894;DHT22;30625;52.206;21.030;2024-02-04T04:05:03;7.20;99.90
44894;DHT22;30625;52.206;21.030;2024-02-04T04:07:28;7.20;99.90
44894;DHT22;30625;52.206;21.030;2024-02-04T04:09:54;7.30;99.90
44894;DHT22;30625;52.206;21.030;2024-02-04T04:12:19;7.20;99.90
44894;DHT22;30625;52.206;21.030;2024-02-04T04:14:45;7.30;99.90
44894;DHT22;30625;52.206;21.030;2024-02-04T04:17:10;7.30;99.90
44894;DHT22;30625;52.206;21.030;2024-02-04T04:19:36;7.20;99.90
44894;DHT22;30625;52.206;21.030;2024-02-04T04:22:02;7.30;99.90
44894;DHT22;30625;52.206;21.030;2024-02-04T04:24:28;7.30;99.90
44894;DHT22;30625;52.206;21.030;2024-02-04T04:26:53;7.20;99.90
44894;DHT22;30625;52.206;21.030;2024-02-04T04:29:19;7.20;99.90
44894;DHT22;30625;52.206;21.030;2024-02-04T04:31:44;7.30;99.90
44894;DHT22;30625;52.206;21.030;2024-02-04T04:34:10;7.20;99.90
44894;DHT22;30625;52.206;21.030;2024-02-04T04:36:36;7.20;99.90
44894;DHT22;30625;52.206;21.030;2024-02-04T04:39:02;7.10;99.90
44894;DHT22;30625;52.206;21.030;2024-02-04T04:41:28;7.10;99.90
44894;DHT22;30625;52.206;21.030;2024-02-04T04:43:57;7.10;99.90
44894;DHT22;30625;52.206;21.030;2024-02-04T04:46:22;7.10;99.90
44894;DHT22;30625;52.206;21.030;2024-02-04T04:48:48;7.00;99.90
44894;DHT22;30625;52.206;21.030;2024-02-04T04:51:13;7.00;99.90
44894;DHT22;30625;52.206;21.030;2024-02-04T04:53:39;6.90;99.90
44894;DHT22;30625;52.206;21.030;2024-02-04T04:56:05;6.90;99.90
44894;DHT22;30625;52.206;21.030;2024-02-04T04:58:31;6.80;99.90
44894;DHT22;30625;52.206;21.030;2024-02-04T05:00:57;6.80;99.90
44894;DHT22;30625;52.206;21.030;2024-02-04T05:03:23;6.80;99.90
44894;DHT22;30625;52.206;21.030;2024-02-04T05:05:48;6.70;99.90
44894;DHT22;30625;52.206;21.030;2024-02-04T05:08:14;6.70;99.90
44894;DHT22;30625;52.206;21.030;2024-02-04T05:10:40;6.60;99.90
44894;DHT22;30625;52.206;21.030;2024-02-04T05:13:05;6.60;99.90
44894;DHT22;30625;52.206;21.030;2024-02-04T05:15:31;6.60;99.90
44894;DHT22;30625;52.206;21.030;2024-02-04T05:17:56;6.60;99.90
44894;DHT22;30625;52.206;21.030;2024-02-04T05:20:22;6.60;99.90
44894;DHT22;30625;52.206;21.030;2024-02-04T05:22:47;6.60;99.90
44894;DHT22;30625;52.206;21.030;2024-02-04T05:25:13;6.50;99.90
44894;DHT22;30625;52.206;21.030;2024-02-04T05:27:39;6.50;99.90
44894;DHT22;30625;52.206;21.030;2024-02-04T05:30:04;6.50;99.90
44894;DHT22;30625;52.206;21.030;2024-02-04T05:32:30;6.50;99.90
44894;DHT22;30625;52.206;21.030;2024-02-04T05:34:56;6.40;99.90
44894;DHT22;30625;52.206;21.030;2024-02-04T05:37:22;6.40;99.90
44894;DHT22;30625;52.206;21.030;2024-02-04T05:39:48;6.30;99.90
44894;DHT22;30625;52.206;21.030;2024-02-04T05:42:13;6.30;99.90
44894;DHT22;30625;52.206;21.030;2024-02-04T05:44:39;6.30;99.90
44894;DHT22;30625;52.206;21.030;2024-02-04T05:47:05;6.30;99.90
44894;DHT22;30625;52.206;21.030;2024-02-04T05:49:31;6.30;99.90
44894;DHT22;30625;52.206;21.030;2024-02-04T05:51:56;6.30;99.90
44894;DHT22;30625;52.206;21.030;2024-02-04T05:54:23;6.40;99.90
44894;DHT22;30625;52.206;21.030;2024-02-04T05:56:49;6.40;99.90
44894;DHT22;30625;52.206;21.030;2024-02-04T05:59:14;6.40;99.90
44894;DHT22;30625;52.206;21.030;2024-02-04T06:01:41;6.30;99.90
44894;DHT22;30625;52.206;21.030;2024-02-04T06:04:07;6.40;99.90
44894;DHT22;30625;52.206;21.030;2024-02-04T06:06:34;6.30;99.90
44894;DHT22;30625;52.206;21.030;2024-02-04T06:09:00;6.30;99.90
44894;DHT22;30625;52.206;21.030;2024-02-04T06:11:26;6.30;99.90
44894;DHT22;30625;52.206;21.030;2024-02-04T06:13:51;6.30;99.90
44894;DHT22;30625;52.206;21.030;2024-02-04T06:16:17;6.30;99.90
44894;DHT22;30625;52.206;21.030;2024-02-04T06:18:43;6.30;99.90
44894;DHT22;30625;52.206;21.030;2024-02-04T06:21:08;6.30;99.90
44894;DHT22;30625;52.206;21.030;2024-02-04T06:23:34;6.30;99.90
44894;DHT22;30625;52.206;21.030;2024-02-04T06:26:00;6.30;99.90
44894;DHT22;30625;52.206;21.030;2024-02-04T06:28:26;6.30;99.90
44894;DHT22;30625;52.206;21.030;2024-02-04T06:30:51;6.30;99.90
44894;DHT22;30625;52.206;21.030;2024-02-04T06:33:17;6.20;99.90
44894;DHT22;30625;52.206;21.030;2024-02-04T06:35:42;6.30;99.90
44894;DHT22;30625;52.206;21.030;2024-02-04T06:38:08;6.10;99.90
44894;DHT22;30625;52.206;21.030;2024-02-04T06:40:34;6.20;99.90
44894;DHT22;30625;52.206;21.030;2024-02-04T06:42:59;6.10;99.90
44894;DHT22;30625;52.206;21.030;2024-02-04T06:45:26;6.10;99.90
44894;DHT22;30625;52.206;21.030;2024-02-04T06:47:51;6.10;99.90
44894;DHT22;30625;52.206;21.030;2024-02-04T06:50:17;6.10;99.90
44894;DHT22;30625;52.206;21.030;2024-02-04T06:52:43;6.30;99.90
44894;DHT22;30625;52.206;21.030;2024-02-04T06:55:09;6.10;99.90
44894;DHT22;30625;52.206;21.030;2024-02-04T06:57:34;6.20;99.90
44894;DHT22;30625;52.206;21.030;2024-02-04T07:00:00;6.20;99.90
44894;DHT22;30625;52.206;21.030;2024-02-04T07:02:25;6.10;99.90
44894;DHT22;30625;52.206;21.030;2024-02-04T07:04:52;6.10;99.90
44894;DHT22;30625;52.206;21.030;2024-02-04T07:07:17;6.10;99.90
44894;DHT22;30625;52.206;21.030;2024-02-04T07:09:43;6.20;99.90
44894;DHT22;30625;52.206;21.030;2024-02-04T07:12:08;6.20;99.90
44894;DHT22;30625;52.206;21.030;2024-02-04T07:14:34;6.20;99.90
44894;DHT22;30625;52.206;21.030;2024-02-04T07:16:59;6.30;99.90
44894;DHT22;30625;52.206;21.030;2024-02-04T07:19:25;6.30;99.90
44894;DHT22;30625;52.206;21.030;2024-02-04T07:21:50;6.20;99.90
44894;DHT22;30625;52.206;21.030;2024-02-04T07:24:16;6.30;99.90
44894;DHT22;30625;52.206;21.030;2024-02-04T07:26:41;6.30;99.90
44894;DHT22;30625;52.206;21.030;2024-02-04T07:29:07;6.30;99.90
44894;DHT22;30625;52.206;21.030;2024-02-04T07:31:32;6.20;99.90
44894;DHT22;30625;52.206;21.030;2024-02-04T07:34:02;6.30;99.90
44894;DHT22;30625;52.206;21.030;2024-02-04T07:36:29;6.20;99.90
44894;DHT22;30625;52.206;21.030;2024-02-04T07:38:54;6.30;99.90
44894;DHT22;30625;52.206;21.030;2024-02-04T07:41:20;6.30;99.90
44894;DHT22;30625;52.206;21.030;2024-02-04T07:43:45;6.30;99.90
44894;DHT22;30625;52.206;21.030;2024-02-04T07:46:13;6.30;99.90
44894;DHT22;30625;52.206;21.030;2024-02-04T07:48:39;6.30;99.90
44894;DHT22;30625;52.206;21.030;2024-02-04T07:51:04;6.40;99.90
44894;DHT22;30625;52.206;21.030;2024-02-04T07:53:30;6.40;99.90
44894;DHT22;30625;52.206;21.030;2024-02-04T07:55:55;6.40;99.90
44894;DHT22;30625;52.206;21.030;2024-02-04T07:58:21;6.40;99.90
44894;DHT22;30625;52.206;21.030;2024-02-04T08:00:46;6.50;99.90
44894;DHT22;30625;52.206;21.030;2024-02-04T08:03:12;6.50;99.90
44894;DHT22;30625;52.206;21.030;2024-02-04T08:05:37;6.50;99.90
44894;DHT22;30625;52.206;21.030;2024-02-04T08:08:03;6.60;99.90
44894;DHT22;30625;52.206;21.030;2024-02-04T08:10:29;6.60;99.90
44894;DHT22;30625;52.206;21.030;2024-02-04T08:12:54;6.60;99.90
44894;DHT22;30625;52.206;21.030;2024-02-04T08:15:20;6.50;99.90
44894;DHT22;30625;52.206;21.030;2024-02-04T08:17:46;6.50;99.90
44894;DHT22;30625;52.206;21.030;2024-02-04T08:20:11;6.50;99.90
44894;DHT22;30625;52.206;21.030;2024-02-04T08:22:37;6.40;99.90
44894;DHT22;30625;52.206;21.030;2024-02-04T08:25:03;6.40;99.90
44894;DHT22;30625;52.206;21.030;2024-02-04T08:27:29;6.50;99.90
44894;DHT22;30625;52.206;21.030;2024-02-04T08:29:55;6.50;99.90
44894;DHT22;30625;52.206;21.030;2024-02-04T08:32:21;6.50;99.90
44894;DHT22;30625;52.206;21.030;2024-02-04T08:34:46;6.50;99.90
44894;DHT22;30625;52.206;21.030;2024-02-04T08:37:12;6.50;99.90
44894;DHT22;30625;52.206;21.030;2024-02-04T08:39:37;6.50;99.90
44894;DHT22;30625;52.206;21.030;2024-02-04T08:42:03;6.50;99.90
44894;DHT22;30625;52.206;21.030;2024-02-04T08:44:29;6.50;99.90
44894;DHT22;30625;52.206;21.030;2024-02-04T08:46:54;6.50;99.90
44894;DHT22;30625;52.206;21.030;2024-02-04T08:49:20;6.50;99.90
44894;DHT22;30625;52.206;21.030;2024-02-04T08:51:46;6.40;99.90
44894;DHT22;30625;52.206;21.030;2024-02-04T08:54:11;6.50;99.90
44894;DHT22;30625;52.206;21.030;2024-02-04T08:56:37;6.50;99.90
44894;DHT22;30625;52.206;21.030;2024-02-04T08:59:02;6.50;99.90
44894;DHT22;30625;52.206;21.030;2024-02-04T09:01:28;6.50;99.90
44894;DHT22;30625;52.206;21.030;2024-02-04T09:03:59;6.50;99.90
44894;DHT22;30625;52.206;21.030;2024-02-04T09:06:28;6.50;99.90
44894;DHT22;30625;52.206;21.030;2024-02-04T09:08:53;6.50;99.90
44894;DHT22;30625;52.206;21.030;2024-02-04T09:11:19;6.50;99.90
44894;DHT22;30625;52.206;21.030;2024-02-04T09:13:46;6.60;99.90
44894;DHT22;30625;52.206;21.030;2024-02-04T09:16:11;6.50;99.90
44894;DHT22;30625;52.206;21.030;2024-02-04T09:18:37;6.60;99.90
44894;DHT22;30625;52.206;21.030;2024-02-04T09:21:02;6.60;99.90
44894;DHT22;30625;52.206;21.030;2024-02-04T09:23:28;6.60;99.90
44894;DHT22;30625;52.206;21.030;2024-02-04T09:25:53;6.60;99.90
44894;DHT22;30625;52.206;21.030;2024-02-04T09:28:19;6.60;99.90
44894;DHT22;30625;52.206;21.030;2024-02-04T09:30:45;6.60;99.90
44894;DHT22;30625;52.206;21.030;2024-02-04T09:33:11;6.70;99.90
44894;DHT22;30625;52.206;21.030;2024-02-04T09:35:37;6.70;99.90
44894;DHT22;30625;52.206;21.030;2024-02-04T09:38:02;6.70;99.90
44894;DHT22;30625;52.206;21.030;2024-02-04T09:40:28;6.70;99.90
44894;DHT22;30625;52.206;21.030;2024-02-04T09:42:54;6.70;99.90
44894;DHT22;30625;52.206;21.030;2024-02-04T09:45:20;6.80;99.90
44894;DHT22;30625;52.206;21.030;2024-02-04T09:47:46;6.80;99.90
44894;DHT22;30625;52.206;21.030;2024-02-04T09:50:12;6.80;99.90
44894;DHT22;30625;52.206;21.030;2024-02-04T09:52:39;6.80;99.90
44894;DHT22;30625;52.206;21.030;2024-02-04T09:55:04;6.80;99.90
44894;DHT22;30625;52.206;21.030;2024-02-04T09:57:32;6.70;99.90
44894;DHT22;30625;52.206;21.030;2024-02-04T09:59:57;6.70;99.90
44894;DHT22;30625;52.206;21.030;2024-02-04T10:02:23;6.70;99.90
44894;DHT22;30625;52.206;21.030;2024-02-04T10:04:49;6.80;99.90
44894;DHT22;30625;52.206;21.030;2024-02-04T10:07:15;6.70;99.90
44894;DHT22;30625;52.206;21.030;2024-02-04T10:09:42;6.70;99.90
44894;DHT22;30625;52.206;21.030;2024-02-04T10:12:08;6.80;99.90
44894;DHT22;30625;52.206;21.030;2024-02-04T10:14:34;6.80;99.90
44894;DHT22;30625;52.206;21.030;2024-02-04T10:17:00;6.90;99.90
44894;DHT22;30625;52.206;21.030;2024-02-04T10:19:26;6.80;99.90
44894;DHT22;30625;52.206;21.030;2024-02-04T10:21:59;6.80;99.90
44894;DHT22;30625;52.206;21.030;2024-02-04T10:24:25;6.80;99.90
44894;DHT22;30625;52.206;21.030;2024-02-04T10:26:50;6.80;99.90
44894;DHT22;30625;52.206;21.030;2024-02-04T10:29:17;6.80;99.90
44894;DHT22;30625;52.206;21.030;2024-02-04T10:31:44;6.80;99.90
44894;DHT22;30625;52.206;21.030;2024-02-04T10:34:11;6.90;99.90
44894;DHT22;30625;52.206;21.030;2024-02-04T10:36:36;6.90;99.90
44894;DHT22;30625;52.206;21.030;2024-02-04T10:39:03;6.90;99.90
44894;DHT22;30625;52.206;21.030;2024-02-04T10:41:29;6.90;99.90
44894;DHT22;30625;52.206;21.030;2024-02-04T10:43:57;6.90;99.90
44894;DHT22;30625;52.206;21.030;2024-02-04T10:46:24;6.90;99.90
44894;DHT22;30625;52.206;21.030;2024-02-04T10:49:00;6.90;99.90
44894;DHT22;30625;52.206;21.030;2024-02-04T10:51:26;6.90;99.90
44894;DHT22;30625;52.206;21.030;2024-02-04T10:53:55;6.90;99.90
44894;DHT22;30625;52.206;21.030;2024-02-04T10:56:32;6.90;99.90
44894;DHT22;30625;52.206;21.030;2024-02-04T10:58:58;6.90;99.90
44894;DHT22;30625;52.206;21.030;2024-02-04T11:01:27;6.90;99.90
44894;DHT22;30625;52.206;21.030;2024-02-04T11:03:52;7.00;99.90
44894;DHT22;30625;52.206;21.030;2024-02-04T11:06:20;6.90;99.90
44894;DHT22;30625;52.206;21.030;2024-02-04T11:08:45;6.90;99.90
44894;DHT22;30625;52.206;21.030;2024-02-04T11:11:12;6.80;99.90
44894;DHT22;30625;52.206;21.030;2024-02-04T11:13:38;6.80;99.90
44894;DHT22;30625;52.206;21.030;2024-02-04T11:16:06;6.80;99.90
44894;DHT22;30625;52.206;21.030;2024-02-04T11:26:38;6.50;99.90
44894;DHT22;30625;52.206;21.030;2024-02-04T11:29:06;6.50;99.90
44894;DHT22;30625;52.206;21.030;2024-02-04T11:31:32;6.40;99.90
44894;DHT22;30625;52.206;21.030;2024-02-04T11:33:58;6.40;99.90
44894;DHT22;30625;52.206;21.030;2024-02-04T11:36:24;6.30;99.90
44894;DHT22;30625;52.206;21.030;2024-02-04T11:38:50;6.30;99.90
44894;DHT22;30625;52.206;21.030;2024-02-04T11:41:22;6.20;99.90
44894;DHT22;30625;52.206;21.030;2024-02-04T11:43:51;6.10;99.90
44894;DHT22;30625;52.206;21.030;2024-02-04T11:46:17;6.10;99.90
44894;DHT22;30625;52.206;21.030;2024-02-04T11:48:50;6.00;99.90
44894;DHT22;30625;52.206;21.030;2024-02-04T11:51:16;6.00;99.90
44894;DHT22;30625;52.206;21.030;2024-02-04T11:53:42;5.90;99.90
44894;DHT22;30625;52.206;21.030;2024-02-04T11:56:08;5.80;99.90
44894;DHT22;30625;52.206;21.030;2024-02-04T11:58:34;5.80;99.90
44894;DHT22;30625;52.206;21.030;2024-02-04T12:01:00;5.80;99.90
44894;DHT22;30625;52.206;21.030;2024-02-04T12:03:30;5.70;99.90
44894;DHT22;30625;52.206;21.030;2024-02-04T12:05:56;5.70;99.90
44894;DHT22;30625;52.206;21.030;2024-02-04T12:08:22;5.60;99.90
44894;DHT22;30625;52.206;21.030;2024-02-04T12:10:48;5.60;99.90
44894;DHT22;30625;52.206;21.030;2024-02-04T12:13:14;5.60;99.90
44894;DHT22;30625;52.206;21.030;2024-02-04T12:15:40;5.70;99.90
44894;DHT22;30625;52.206;21.030;2024-02-04T12:18:09;5.70;99.90
44894;DHT22;30625;52.206;21.030;2024-02-04T12:20:35;5.70;99.90
44894;DHT22;30625;52.206;21.030;2024-02-04T12:23:05;5.80;99.90
44894;DHT22;30625;52.206;21.030;2024-02-04T12:25:31;5.80;99.90
44894;DHT22;30625;52.206;21.030;2024-02-04T12:28:00;5.80;99.90
44894;DHT22;30625;52.206;21.030;2024-02-04T12:30:28;5.90;99.90
44894;DHT22;30625;52.206;21.030;2024-02-04T12:32:57;5.90;99.90
44894;DHT22;30625;52.206;21.030;2024-02-04T12:35:23;5.90;99.90
44894;DHT22;30625;52.206;21.030;2024-02-04T12:37:52;5.90;99.90
44894;DHT22;30625;52.206;21.030;2024-02-04T12:40:27;5.90;99.90
44894;DHT22;30625;52.206;21.030;2024-02-04T12:42:56;6.00;99.90
44894;DHT22;30625;52.206;21.030;2024-02-04T12:45:22;6.00;99.90
44894;DHT22;30625;52.206;21.030;2024-02-04T12:47:51;6.10;99.90
44894;DHT22;30625;52.206;21.030;2024-02-04T12:50:17;6.10;99.90
44894;DHT22;30625;52.206;21.030;2024-02-04T12:53:01;6.10;99.90
44894;DHT22;30625;52.206;21.030;2024-02-04T12:55:27;6.20;99.90
44894;DHT22;30625;52.206;21.030;2024-02-04T12:58:11;6.20;99.90
44894;DHT22;30625;52.206;21.030;2024-02-04T13:00:39;6.20;99.90
44894;DHT22;30625;52.206;21.030;2024-02-04T13:03:06;6.10;99.90
44894;DHT22;30625;52.206;21.030;2024-02-04T13:05:33;6.00;99.90
44894;DHT22;30625;52.206;21.030;2024-02-04T13:07:59;6.10;99.90
44894;DHT22;30625;52.206;21.030;2024-02-04T13:10:30;6.10;99.90
44894;DHT22;30625;52.206;21.030;2024-02-04T13:15:40;6.10;99.90
44894;DHT22;30625;52.206;21.030;2024-02-04T13:18:08;6.10;99.90
44894;DHT22;30625;52.206;21.030;2024-02-04T13:20:36;6.10;99.90
44894;DHT22;30625;52.206;21.030;2024-02-04T13:23:01;6.00;99.90
44894;DHT22;30625;52.206;21.030;2024-02-04T13:25:30;6.00;99.90
44894;DHT22;30625;52.206;21.030;2024-02-04T13:27:56;6.00;99.90
44894;DHT22;30625;52.206;21.030;2024-02-04T13:30:22;6.00;99.90
44894;DHT22;30625;52.206;21.030;2024-02-04T13:32:47;6.00;99.90
44894;DHT22;30625;52.206;21.030;2024-02-04T13:35:13;6.00;99.90
44894;DHT22;30625;52.206;21.030;2024-02-04T13:37:45;6.00;99.90
44894;DHT22;30625;52.206;21.030;2024-02-04T13:40:17;6.00;99.90
44894;DHT22;30625;52.206;21.030;2024-02-04T13:42:43;6.10;99.90
44894;DHT22;30625;52.206;21.030;2024-02-04T13:45:08;6.00;99.90
44894;DHT22;30625;52.206;21.030;2024-02-04T13:47:34;6.00;99.90
44894;DHT22;30625;52.206;21.030;2024-02-04T13:50:00;6.00;99.90
44894;DHT22;30625;52.206;21.030;2024-02-04T13:52:26;6.00;99.90
44894;DHT22;30625;52.206;21.030;2024-02-04T13:54:51;6.00;99.90
44894;DHT22;30625;52.206;21.030;2024-02-04T13:57:17;6.00;99.90
44894;DHT22;30625;52.206;21.030;2024-02-04T13:59:42;6.60;99.90
44894;DHT22;30625;52.206;21.030;2024-02-04T14:02:08;6.10;99.90
44894;DHT22;30625;52.206;21.030;2024-02-04T14:04:34;6.10;99.90
44894;DHT22;30625;52.206;21.030;2024-02-04T14:07:00;6.10;99.90
44894;DHT22;30625;52.206;21.030;2024-02-04T14:09:26;6.10;99.90
44894;DHT22;30625;52.206;21.030;2024-02-04T14:11:51;6.10;99.90
44894;DHT22;30625;52.206;21.030;2024-02-04T14:14:22;6.10;99.90
44894;DHT22;30625;52.206;21.030;2024-02-04T14:16:48;6.10;99.90
44894;DHT22;30625;52.206;21.030;2024-02-04T14:19:14;6.10;99.90
44894;DHT22;30625;52.206;21.030;2024-02-04T14:21:40;6.10;99.90
44894;DHT22;30625;52.206;21.030;2024-02-04T14:24:06;6.20;99.90
44894;DHT22;30625;52.206;21.030;2024-02-04T14:26:32;6.20;99.90
44894;DHT22;30625;52.206;21.030;2024-02-04T14:28:57;6.20;99.90
44894;DHT22;30625;52.206;21.030;2024-02-04T14:31:23;6.20;99.90
44894;DHT22;30625;52.206;21.030;2024-02-04T14:33:48;6.20;99.90
44894;DHT22;30625;52.206;21.030;2024-02-04T14:36:14;6.30;99.90
44894;DHT22;30625;52.206;21.030;2024-02-04T14:38:41;6.30;99.90
44894;DHT22;30625;52.206;21.030;2024-02-04T14:41:07;6.30;99.90
44894;DHT22;30625;52.206;21.030;2024-02-04T14:43:33;6.40;99.90
44894;DHT22;30625;52.206;21.030;2024-02-04T14:46:00;6.40;99.90
44894;DHT22;30625;52.206;21.030;2024-02-04T14:48:25;6.40;99.90
44894;DHT22;30625;52.206;21.030;2024-02-04T14:50:51;6.50;99.90
44894;DHT22;30625;52.206;21.030;2024-02-04T14:53:17;6.50;99.90
44894;DHT22;30625;52.206;21.030;2024-02-04T14:55:42;6.60;99.90
44894;DHT22;30625;52.206;21.030;2024-02-04T14:58:09;6.50;99.90
44894;DHT22;30625;52.206;21.030;2024-02-04T15:00:34;6.60;99.90
44894;DHT22;30625;52.206;21.030;2024-02-04T15:03:00;6.60;99.90
44894;DHT22;30625;52.206;21.030;2024-02-04T15:05:25;6.60;99.90
44894;DHT22;30625;52.206;21.030;2024-02-04T15:07:51;6.60;99.90
44894;DHT22;30625;52.206;21.030;2024-02-04T15:10:17;6.60;99.90
44894;DHT22;30625;52.206;21.030;2024-02-04T15:12:42;6.60;99.90
44894;DHT22;30625;52.206;21.030;2024-02-04T15:15:09;6.60;99.90
44894;DHT22;30625;52.206;21.030;2024-02-04T15:17:35;6.60;99.90
44894;DHT22;30625;52.206;21.030;2024-02-04T15:20:00;6.60;99.90
44894;DHT22;30625;52.206;21.030;2024-02-04T15:22:26;6.60;99.90
44894;DHT22;30625;52.206;21.030;2024-02-04T15:24:53;6.70;99.90
44894;DHT22;30625;52.206;21.030;2024-02-04T15:27:19;6.60;99.90
44894;DHT22;30625;52.206;21.030;2024-02-04T15:29:46;6.70;99.90
44894;DHT22;30625;52.206;21.030;2024-02-04T15:32:12;6.70;99.90
44894;DHT22;30625;52.206;21.030;2024-02-04T15:34:38;6.70;99.90
44894;DHT22;30625;52.206;21.030;2024-02-04T15:37:05;6.70;99.90
44894;DHT22;30625;52.206;21.030;2024-02-04T15:39:31;6.70;99.90